This is the latest recevied weather packets stored in our database for station/object N7SWJ. If no packets are shown the sender has not sent any weather packets the latest 1 day(s).
| Time | Temp. | Humidity | Pressure | Rain* | Wind** | Luminosity | Snow |
|---|---|---|---|---|---|---|---|
| 1778027400 | 0.56° C | 95% | 1016.1 hPa | 0 mm | 0 m/s | 23 W/m² | - |
| 1778027097 | 0.56° C | 95% | 1016.1 hPa | 0 mm | 0 m/s | 24 W/m² | - |
| 1778026792 | 0.56° C | 95% | 1016.3 hPa | 0 mm | 0 m/s | 23 W/m² | - |
| 1778026489 | 0.56° C | 95% | 1016 hPa | 0 mm | 0.45 m/s, 63° | 27 W/m² | - |
| 1778026187 | 0.56° C | 95% | 1015.8 hPa | 1.78 mm | 0 m/s | 30 W/m² | - |
| 1778025884 | 1.11° C | 95% | 1015.5 hPa | 1.78 mm | 0.45 m/s, 57° | 30 W/m² | - |
| 1778025581 | 1.11° C | 95% | 1015.7 hPa | 1.27 mm | 0.89 m/s, 52° | 31 W/m² | - |
| 1778025279 | 1.67° C | 95% | 1015.7 hPa | 1.27 mm | 0 m/s | 28 W/m² | - |
| 1778024975 | 1.67° C | 95% | 1015.8 hPa | 1.78 mm | 0 m/s | 27 W/m² | - |
| 1778024673 | 1.67° C | 95% | 1016 hPa | 1.78 mm | 0 m/s | 32 W/m² | - |
| 1778024369 | 1.67° C | 95% | 1016.1 hPa | 1.78 mm | 0 m/s | 30 W/m² | - |
| 1778024067 | 1.67° C | 95% | 1015.9 hPa | 0 mm | 0 m/s | 31 W/m² | - |
| 1778023765 | 1.67° C | 95% | 1015.9 hPa | 1.27 mm | 0 m/s | 37 W/m² | - |
| 1778023463 | 1.67° C | 95% | 1015.9 hPa | 1.27 mm | 0.45 m/s, 55° | 33 W/m² | - |
| 1778023159 | 1.67° C | 95% | 1015.9 hPa | 0 mm | 0 m/s | 30 W/m² | - |
| 1778022857 | 1.67° C | 95% | 1015.7 hPa | 0 mm | 0.45 m/s, 68° | 28 W/m² | - |
| 1778022555 | 1.67° C | 95% | 1015.9 hPa | 1.78 mm | 0 m/s | 42 W/m² | - |
| 1778022262 | 1.67° C | 95% | 1015.9 hPa | 1.78 mm | 0 m/s | 45 W/m² | - |
| 1778021948 | 1.67° C | 95% | 1015.9 hPa | 1.27 mm | 0.45 m/s, 51° | 43 W/m² | - |
| 1778021646 | 1.67° C | 95% | 1015.5 hPa | 1.27 mm | 0.45 m/s, 40° | 44 W/m² | - |
| 1778021340 | 2.22° C | 95% | 1015.5 hPa | 0 mm | 0.45 m/s, 67° | 53 W/m² | - |
| 1778021038 | 2.22° C | 95% | 1015.8 hPa | 0 mm | 0.45 m/s, 57° | 61 W/m² | - |
| 1778020735 | 1.67° C | 95% | 1015.8 hPa | 1.78 mm | 0 m/s | 56 W/m² | - |
| 1778020432 | 1.67° C | 95% | 1015.8 hPa | 1.78 mm | 0.45 m/s, 54° | 79 W/m² | - |
| 1778020128 | 1.67° C | 94% | 1015.5 hPa | 1.27 mm | 0.45 m/s, 85° | 73 W/m² | - |
* Rain latest hour (hover to see other rain measurements)
** Current wind speed in m/s (hover to see current wind gust speed)